Time;durP1;ratioP1;P1;durP2;ratioP2;P2;SDS_P1;SDS_P2;PMS_P1;PMS_P2;Temp;Humidity;BMP_temperature;BMP_pressure;BME280_temperature;BME280_humidity;BME280_pressure;Samples;Min_cycle;Max_cycle;Signal;HPM_P1;HPM_P2
2021/03/16 00:02:56;;;;;;;45.23;24.85;;;;;;;4.31;71.85;99537.23;2207594;80;28829;-60
2021/03/16 00:06:05;;;;;;;46.37;27.70;;;;;;;4.37;71.86;99536.55;2207823;80;32040;-62
2021/03/16 00:09:11;;;;;;;39.65;24.00;;;;;;;4.41;71.85;99541.27;2207680;80;32959;-62
2021/03/16 00:12:15;;;;;;;44.93;29.60;;;;;;;4.44;71.68;99541.17;2207989;80;29737;-61
2021/03/16 00:15:22;;;;;;;67.60;39.42;;;;;;;4.45;71.71;99536.75;2208006;80;28005;-61
2021/03/16 00:18:30;;;;;;;63.48;37.30;;;;;;;4.47;71.64;99541.53;2207898;80;29730;-61
2021/03/16 00:21:38;;;;;;;33.53;19.17;;;;;;;4.49;71.75;99537.89;2207763;80;32016;-61
2021/03/16 00:24:44;;;;;;;40.88;23.50;;;;;;;4.50;71.52;99544.05;2207752;80;34066;-62
2021/03/16 00:27:53;;;;;;;37.83;19.75;;;;;;;4.51;71.58;99541.80;2209069;80;29724;-61
2021/03/16 00:31:07;;;;;;;34.95;18.12;;;;;;;4.54;71.67;99545.67;2207858;80;27931;-62
2021/03/16 00:34:22;;;;;;;28.05;16.65;;;;;;;4.59;71.69;99545.05;2207897;78;29713;-62
2021/03/16 00:37:33;;;;;;;22.90;13.30;;;;;;;4.66;71.66;99550.52;2207806;80;32030;-62
2021/03/16 00:40:44;;;;;;;27.40;15.93;;;;;;;4.71;71.61;99548.56;2207928;80;33975;-61
2021/03/16 00:44:00;;;;;;;26.33;15.88;;;;;;;4.74;71.63;99548.90;2207892;80;29741;-61
2021/03/16 00:47:07;;;;;;;26.23;16.87;;;;;;;4.78;71.66;99550.52;2207907;80;27958;-61
2021/03/16 00:50:14;;;;;;;37.35;21.27;;;;;;;4.81;71.68;99546.43;2207508;80;29797;-61
2021/03/16 00:53:20;;;;;;;31.00;20.00;;;;;;;4.83;71.48;99540.61;2207402;80;32108;-62
2021/03/16 00:56:24;;;;;;;33.05;20.68;;;;;;;4.84;71.56;99546.77;2207395;80;33976;-61
2021/03/16 00:59:30;;;;;;;33.38;20.32;;;;;;;4.85;71.55;99543.19;2207449;80;29758;-61
2021/03/16 01:02:37;;;;;;;24.43;14.90;;;;;;;4.86;71.56;99543.59;2207451;80;27995;-62
2021/03/16 01:05:48;;;;;;;23.27;14.18;;;;;;;4.86;71.52;99544.92;2207421;80;29724;-61
2021/03/16 01:08:57;;;;;;;26.07;17.12;;;;;;;4.88;71.51;99543.55;2207321;80;32247;-62
2021/03/16 01:12:02;;;;;;;26.20;16.90;;;;;;;4.90;71.59;99542.56;2207439;80;33964;-59
2021/03/16 01:15:08;;;;;;;21.55;15.05;;;;;;;4.94;71.59;99542.85;2207892;80;28926;-61
2021/03/16 01:18:18;;;;;;;23.55;15.23;;;;;;;4.98;71.57;99542.27;2207827;80;27867;-59
2021/03/16 01:21:35;;;;;;;27.67;14.87;;;;;;;5.00;71.55;99535.95;2207721;80;30192;-61
2021/03/16 01:24:49;;;;;;;16.52;9.88;;;;;;;5.04;71.48;99537.17;2207800;79;34792;-61
2021/03/16 01:28:01;;;;;;;20.57;13.35;;;;;;;5.03;71.46;99531.02;2207769;80;34017;-60
2021/03/16 01:31:13;;;;;;;23.45;14.38;;;;;;;5.04;71.51;99533.19;2207846;80;28716;-61
2021/03/16 01:34:30;;;;;;;22.17;13.55;;;;;;;5.04;71.50;99535.84;2214309;79;27864;-62
2021/03/16 01:37:39;;;;;;;21.93;15.20;;;;;;;5.04;71.54;99533.19;2221961;80;29707;-61
2021/03/16 01:40:49;;;;;;;25.80;14.87;;;;;;;5.01;71.68;99532.86;2221902;80;32074;-61
2021/03/16 01:43:59;;;;;;;20.65;12.95;;;;;;;5.02;71.73;99537.24;2221978;79;33135;-61
2021/03/16 01:47:06;;;;;;;20.05;12.65;;;;;;;5.04;71.68;99533.19;2222016;80;29710;-61
2021/03/16 01:50:23;;;;;;;18.25;12.43;;;;;;;5.04;71.63;99542.48;2222029;79;27884;-61
2021/03/16 01:53:33;;;;;;;19.50;12.93;;;;;;;5.05;71.78;99547.72;2221370;79;27890;-61
2021/03/16 01:56:40;;;;;;;22.17;14.07;;;;;;;5.09;71.79;99545.35;2221902;80;32025;-61
2021/03/16 01:59:54;;;;;;;25.70;14.13;;;;;;;5.08;71.78;99551.58;2204211;80;34190;-61
2021/03/16 02:03:13;;;;;;;26.50;15.05;;;;;;;5.07;71.75;99548.52;2204719;80;29356;-61
2021/03/16 02:06:43;;;;;;;22.98;14.65;;;;;;;5.05;71.72;99552.17;2221184;79;27957;-61
2021/03/16 02:10:35;;;;;;;28.02;16.15;;;;;;;5.05;71.83;99558.81;2203235;80;28154;-62
2021/03/16 02:13:54;;;;;;;21.80;13.65;;;;;;;5.01;71.70;99550.11;2203861;80;31192;-61
2021/03/16 02:17:16;;;;;;;25.15;14.70;;;;;;;4.95;71.67;99555.20;2204124;80;33966;-61
2021/03/16 02:20:43;;;;;;;23.30;14.68;;;;;;;4.92;71.88;99554.43;2204039;80;28838;-61
2021/03/16 02:24:14;;;;;;;26.30;15.28;;;;;;;4.91;71.93;99561.55;2204320;80;27939;-61
2021/03/16 02:27:29;;;;;;;22.15;13.60;;;;;;;4.89;71.99;99556.75;2204204;80;29697;-61
2021/03/16 02:30:38;;;;;;;20.35;12.90;;;;;;;4.89;72.03;99558.08;2204209;80;32046;-61
2021/03/16 02:33:45;;;;;;;22.05;13.08;;;;;;;4.88;71.98;99555.50;2201774;80;33959;-61
2021/03/16 02:36:54;;;;;;;21.77;13.55;;;;;;;4.85;72.06;99561.77;2186790;81;29727;-62
2021/03/16 02:40:02;;;;;;;19.10;11.83;;;;;;;4.84;72.04;99554.73;2192376;80;27980;-60
2021/03/16 02:43:08;;;;;;;16.57;11.53;;;;;;;4.85;72.04;99556.45;2207928;79;29711;-61
2021/03/16 02:46:17;;;;;;;18.65;11.90;;;;;;;4.88;72.12;99564.78;2207876;80;32129;-61
2021/03/16 02:49:23;;;;;;;17.27;11.15;;;;;;;4.90;72.20;99561.14;2207906;80;33953;-61
2021/03/16 02:52:29;;;;;;;17.82;12.70;;;;;;;4.95;72.33;99560.95;2207909;79;30064;-61
2021/03/16 02:55:39;;;;;;;16.42;11.78;;;;;;;4.96;72.24;99573.30;2207984;80;27968;-61
2021/03/16 02:58:52;;;;;;;17.82;12.70;;;;;;;4.95;72.27;99572.89;2207310;80;27955;-61
2021/03/16 03:02:03;;;;;;;23.38;14.75;;;;;;;4.97;72.32;99573.23;2207837;80;32033;-60
2021/03/16 03:05:12;;;;;;;21.05;14.50;;;;;;;4.96;72.33;99567.99;2207852;79;32999;-60
2021/03/16 03:08:21;;;;;;;20.08;14.58;;;;;;;4.97;72.34;99567.07;2207921;80;29156;-61
2021/03/16 03:11:31;;;;;;;20.12;14.55;;;;;;;4.93;72.27;99568.98;2207915;80;28057;-60
2021/03/16 03:14:40;;;;;;;17.82;13.68;;;;;;;4.93;72.27;99578.72;2207932;80;29714;-60
2021/03/16 03:17:50;;;;;;;17.42;13.40;;;;;;;4.90;72.23;99578.83;2207748;80;32101;-62
2021/03/16 03:20:56;;;;;;;19.70;12.93;;;;;;;4.82;72.30;99580.00;2207783;80;33957;-61
2021/03/16 03:24:05;;;;;;;19.70;14.28;;;;;;;4.79;72.34;99578.79;2207557;80;30039;-61
2021/03/16 03:27:13;;;;;;;20.45;13.83;;;;;;;4.78;72.48;99583.69;2207917;80;28010;-60
2021/03/16 03:30:23;;;;;;;19.60;13.80;;;;;;;4.78;72.65;99587.67;2205870;80;28839;-60
2021/03/16 03:33:29;;;;;;;20.25;13.98;;;;;;;4.79;72.71;99588.08;2207707;80;31947;-61
2021/03/16 03:36:39;;;;;;;16.23;11.45;;;;;;;4.77;72.65;99589.06;2211075;79;33976;-61
2021/03/16 03:39:45;;;;;;;16.12;12.90;;;;;;;4.75;72.60;99594.89;2207655;80;29170;-60
2021/03/16 03:42:56;;;;;;;15.18;12.18;;;;;;;4.71;72.65;99598.13;2207644;80;27956;-61
2021/03/16 03:46:10;;;;;;;15.80;12.90;;;;;;;4.67;72.85;99595.17;2206981;80;29717;-61
2021/03/16 03:49:17;;;;;;;15.68;12.70;;;;;;;4.66;72.87;99604.91;2206816;79;31207;-62
2021/03/16 03:52:28;;;;;;;18.35;11.45;;;;;;;4.65;72.91;99601.84;2210350;80;30326;-62
2021/03/16 03:55:41;;;;;;;16.27;12.05;;;;;;;4.64;73.02;99602.77;2206830;80;28581;-63
2021/03/16 03:58:50;;;;;;;15.72;11.22;;;;;;;4.66;73.14;99612.02;2207113;80;27959;-62
2021/03/16 04:01:56;;;;;;;14.60;11.95;;;;;;;4.64;73.13;99608.55;2208237;79;28824;-61
2021/03/16 04:05:01;;;;;;;12.75;10.75;;;;;;;4.61;73.12;99616.16;2207773;80;32048;-60
2021/03/16 04:08:07;;;;;;;14.40;10.40;;;;;;;4.59;73.12;99618.45;2207754;80;33944;-60
2021/03/16 04:11:15;;;;;;;17.82;10.48;;;;;;;4.56;73.20;99618.95;2207857;80;30064;-61
2021/03/16 04:14:26;;;;;;;14.85;10.32;;;;;;;4.58;73.25;99618.92;2207918;80;27906;-63
2021/03/16 04:17:40;;;;;;;13.78;10.53;;;;;;;4.59;73.31;99627.28;2207947;80;29627;-62
2021/03/16 04:20:52;;;;;;;14.35;10.85;;;;;;;4.59;73.35;99635.69;2207883;80;35551;-62
2021/03/16 04:24:01;;;;;;;14.35;11.05;;;;;;;4.59;73.36;99625.96;2207850;80;33968;-61
2021/03/16 04:27:19;;;;;;;14.70;11.55;;;;;;;4.61;73.44;99641.81;2187076;80;27998;-61
2021/03/16 04:30:30;;;;;;;12.90;10.20;;;;;;;4.58;73.38;99634.84;2207876;80;27906;-61
2021/03/16 04:33:38;;;;;;;15.23;10.28;;;;;;;4.55;73.34;99633.61;2208002;80;29709;-62
2021/03/16 04:36:44;;;;;;;15.53;11.18;;;;;;;4.51;73.30;99637.29;2220368;79;32033;-61
2021/03/16 04:39:55;;;;;;;14.18;10.50;;;;;;;4.51;73.48;99644.80;2222330;80;33989;-61
2021/03/16 04:43:02;;;;;;;18.62;10.93;;;;;;;4.50;73.49;99641.74;2221963;80;30046;-60
2021/03/16 04:46:13;;;;;;;13.35;10.38;;;;;;;4.49;73.54;99646.64;2222072;79;27903;-61
2021/03/16 04:49:26;;;;;;;12.70;9.28;;;;;;;4.48;73.58;99648.00;2221072;79;27809;-63
2021/03/16 04:52:34;;;;;;;12.50;9.58;;;;;;;4.46;73.54;99654.70;2221974;79;31151;-62
2021/03/16 04:55:44;;;;;;;12.68;9.05;;;;;;;4.47;73.63;99656.43;2221516;80;33960;-62
2021/03/16 04:58:58;;;;;;;15.80;9.30;;;;;;;4.44;73.61;99663.16;2205541;80;28693;-63
2021/03/16 05:02:07;;;;;;;11.68;8.15;;;;;;;4.43;73.66;99666.73;2221969;80;27874;-62
2021/03/16 05:05:13;;;;;;;11.97;9.35;;;;;;;4.43;73.79;99665.87;2222074;79;28827;-63
2021/03/16 05:08:18;;;;;;;12.78;9.05;;;;;;;4.43;73.77;99669.38;2222011;80;31181;-61
2021/03/16 05:11:28;;;;;;;12.47;9.03;;;;;;;4.45;73.86;99669.35;2221848;80;33976;-62
2021/03/16 05:14:38;;;;;;;12.47;8.35;;;;;;;4.45;73.83;99678.16;2221982;80;30048;-62
2021/03/16 05:17:45;;;;;;;14.63;9.43;;;;;;;4.44;73.91;99679.55;2222086;80;27943;-61
2021/03/16 05:20:50;;;;;;;12.03;8.70;;;;;;;4.46;73.93;99685.20;2222026;80;28820;-61
2021/03/16 05:24:02;;;;;;;13.08;8.40;;;;;;;4.45;73.85;99682.14;2222262;80;31897;-62
2021/03/16 05:27:08;;;;;;;11.90;8.10;;;;;;;4.45;73.90;99684.79;2221713;80;33972;-62
2021/03/16 05:30:21;;;;;;;11.55;8.18;;;;;;;4.46;73.95;99688.33;2221853;79;29158;-61
2021/03/16 05:33:34;;;;;;;9.93;8.15;;;;;;;4.45;73.93;99690.56;2220169;79;28049;-63
2021/03/16 05:36:48;;;;;;;9.38;7.70;;;;;;;4.46;74.04;99692.30;2218982;79;29447;-63
2021/03/16 05:40:01;;;;;;;20.02;9.23;;;;;;;4.45;74.03;99703.83;2219143;79;32127;-63
2021/03/16 05:43:12;;;;;;;28.65;17.77;;;;;;;4.43;74.07;99705.19;2219206;80;34036;-64
2021/03/16 05:46:21;;;;;;;11.95;7.67;;;;;;;4.43;74.14;99700.36;2219450;80;30047;-62
2021/03/16 05:49:32;;;;;;;9.50;7.87;;;;;;;4.46;74.20;99709.55;2219606;80;28042;-62
2021/03/16 05:52:43;;;;;;;11.05;7.85;;;;;;;4.47;74.22;99711.28;2220024;79;29711;-64
2021/03/16 05:55:55;;;;;;;11.70;8.10;;;;;;;4.49;74.38;99708.97;2202469;80;31829;-63
2021/03/16 05:59:03;;;;;;;13.03;7.65;;;;;;;4.51;74.41;99712.88;2220023;80;34000;-64
2021/03/16 06:02:18;;;;;;;13.95;8.13;;;;;;;4.52;74.31;99714.17;2219878;80;29238;-64
2021/03/16 06:05:25;;;;;;;9.93;8.13;;;;;;;4.51;74.31;99719.07;2220536;79;27929;-61
2021/03/16 06:08:32;;;;;;;9.93;7.47;;;;;;;4.52;74.41;99716.83;2220680;79;29707;-63
2021/03/16 06:11:49;;;;;;;13.55;8.58;;;;;;;4.52;74.43;99725.23;2220458;79;32044;-63
2021/03/16 06:15:11;;;;;;;11.48;8.68;;;;;;;4.53;74.54;99723.87;2219105;80;27974;-64
2021/03/16 06:18:32;;;;;;;10.15;8.75;;;;;;;4.58;74.62;99737.41;2221077;80;30077;-65
2021/03/16 06:21:46;;;;;;;9.08;7.20;;;;;;;4.61;74.69;99736.87;2222118;79;27844;-64
2021/03/16 06:24:54;;;;;;;10.03;8.40;;;;;;;4.61;74.54;99733.33;2214619;80;31163;-64
2021/03/16 06:28:04;;;;;;;12.28;8.15;;;;;;;4.63;74.63;99739.45;2222059;80;32019;-64
2021/03/16 06:31:23;;;;;;;10.95;8.18;;;;;;;4.68;74.72;99741.50;2222022;79;33978;-61
2021/03/16 06:34:36;;;;;;;14.73;7.78;;;;;;;4.73;74.77;99737.36;2221941;79;27931;-64
2021/03/16 06:38:05;;;;;;;8.15;6.45;;;;;;;4.83;74.80;99741.41;2208344;80;27861;-65
2021/03/16 06:41:24;;;;;;;10.48;7.20;;;;;;;4.85;74.48;99740.90;2208000;80;29728;-64
2021/03/16 06:44:29;;;;;;;9.05;6.72;;;;;;;4.91;74.53;99745.12;2207765;80;32081;-63
2021/03/16 06:47:44;;;;;;;;;;;;;;;4.99;74.62;99749.71;2210454;80;33084;-62
2021/03/16 06:50:53;;;;;;;10.48;7.03;;;;;;;5.09;74.58;99753.76;2207915;80;29157;-64
2021/03/16 06:54:29;;;;;;;8.40;6.00;;;;;;;5.17;74.59;99761.00;2207798;79;28018;-64
2021/03/16 06:57:45;;;;;;;9.35;5.92;;;;;;;5.24;74.35;99768.73;2208009;79;27863;-63
2021/03/16 07:01:12;;;;;;;8.53;5.90;;;;;;;5.32;74.23;99774.17;2207789;80;33497;-65
2021/03/16 07:04:29;;;;;;;9.98;7.85;;;;;;;5.38;74.03;99776.20;2207211;80;28729;-64
2021/03/16 07:07:41;;;;;;;5.90;5.30;;;;;;;5.42;74.10;99779.16;2207981;80;29162;-62
2021/03/16 07:10:53;;;;;;;7.87;5.30;;;;;;;5.42;73.72;99780.02;2208066;80;27972;-63
2021/03/16 07:14:08;;;;;;;5.37;4.60;;;;;;;5.39;73.66;99776.61;2184059;80;27892;-63
2021/03/16 07:17:28;;;;;;;7.22;4.53;;;;;;;5.38;73.67;99783.70;2203583;80;27923;-63
2021/03/16 07:20:47;;;;;;;6.72;4.75;;;;;;;5.38;73.68;99785.02;2171919;80;33200;-63
2021/03/16 07:24:09;;;;;;;5.78;5.17;;;;;;;5.37;73.69;99785.09;2206555;80;27934;-64
2021/03/16 07:27:26;;;;;;;9.55;6.62;;;;;;;5.39;73.85;99801.84;2207766;80;27927;-64
2021/03/16 07:30:42;;;;;;;14.33;8.38;;;;;;;5.38;73.80;99793.47;2185322;80;28599;-64
2021/03/16 07:33:53;;;;;;;9.40;7.33;;;;;;;5.37;73.89;99795.27;2185547;80;31121;-60
2021/03/16 07:37:07;;;;;;;13.35;7.62;;;;;;;5.40;73.87;99801.78;2207681;78;33956;-66
2021/03/16 07:40:19;;;;;;;21.75;13.78;;;;;;;5.45;74.06;99806.47;2187202;80;30043;-61
2021/03/16 07:43:38;;;;;;;40.70;26.20;;;;;;;5.50;74.03;99806.30;2207953;80;27914;-64
2021/03/16 07:47:05;;;;;;;37.80;27.00;;;;;;;5.54;73.88;99812.39;2207600;80;27883;-61
2021/03/16 07:50:21;;;;;;;16.17;14.43;;;;;;;5.54;73.81;99813.72;2204699;80;32070;-61
2021/03/16 07:53:36;;;;;;;11.97;9.88;;;;;;;5.52;73.70;99817.73;2207744;80;34043;-61
2021/03/16 07:57:02;;;;;;;14.87;12.10;;;;;;;5.53;73.61;99826.11;2207494;80;30677;-66
2021/03/16 08:00:09;;;;;;;18.20;14.28;;;;;;;5.56;73.82;99823.80;2207498;79;27940;-64
2021/03/16 08:03:18;;;;;;;22.90;14.75;;;;;;;5.60;73.67;99824.98;2207483;80;29564;-61
2021/03/16 08:06:29;;;;;;;11.12;7.92;;;;;;;5.65;73.67;99831.89;2207618;80;32078;-66
2021/03/16 08:09:57;;;;;;;14.47;8.68;;;;;;;5.70;73.58;99829.94;2207757;80;33978;-62
2021/03/16 08:13:09;;;;;;;9.65;6.53;;;;;;;5.75;73.46;99835.48;2207695;80;29156;-61
2021/03/16 08:16:19;;;;;;;7.03;6.12;;;;;;;5.80;73.41;99839.77;2207808;80;27839;-67
2021/03/16 08:19:40;;;;;;;10.60;6.25;;;;;;;5.82;73.19;99838.78;2184942;80;28627;-65
2021/03/16 08:22:52;;;;;;;8.93;6.35;;;;;;;5.84;73.19;99840.06;2207784;79;27937;-59
2021/03/16 08:26:09;;;;;;;10.40;7.30;;;;;;;5.84;73.11;99846.23;2207348;80;33138;-61
2021/03/16 08:29:29;;;;;;;11.38;6.55;;;;;;;5.87;73.23;99842.14;2207906;80;30057;-62
2021/03/16 08:32:45;;;;;;;9.40;6.37;;;;;;;5.96;73.28;99846.24;2207844;80;27902;-60
2021/03/16 08:35:54;;;;;;;8.60;6.72;;;;;;;6.02;73.12;99845.17;2207374;78;29022;-62
2021/03/16 08:39:00;;;;;;;7.35;5.62;;;;;;;6.06;73.00;99849.45;2207110;80;32042;-61
2021/03/16 08:42:12;;;;;;;14.85;9.43;;;;;;;6.10;72.87;99850.20;2207028;80;33848;-61
2021/03/16 08:45:32;;;;;;;33.85;15.90;;;;;;;6.12;72.67;99855.87;2207179;79;29148;-63
2021/03/16 08:48:41;;;;;;;33.25;15.75;;;;;;;6.14;72.53;99854.48;2207213;80;27971;-63
2021/03/16 08:51:47;;;;;;;34.25;16.00;;;;;;;6.17;72.56;99859.69;2210965;79;29699;-62
2021/03/16 08:54:55;;;;;;;40.17;19.77;;;;;;;6.19;72.46;99857.36;2207367;80;33128;-62
2021/03/16 08:58:10;;;;;;;23.92;13.32;;;;;;;6.21;72.41;99858.17;2207023;80;33939;-63
2021/03/16 09:01:25;;;;;;;21.85;11.60;;;;;;;6.24;72.35;99865.16;2205332;80;29160;-67
2021/03/16 09:04:28;;;;;;;18.25;11.65;;;;;;;6.27;72.39;99865.04;2210519;80;27904;-68
2021/03/16 09:07:36;;;;;;;14.30;9.40;;;;;;;6.33;72.35;99862.16;2209592;80;29704;-68
2021/03/16 09:10:39;;;;;;;11.83;9.08;;;;;;;6.37;72.20;99864.22;2209304;80;32083;-76
2021/03/16 09:13:41;;;;;;;19.07;11.80;;;;;;;6.39;72.28;99864.55;2209456;80;34005;-76
2021/03/16 09:16:52;;;;;;;24.70;13.40;;;;;;;6.44;72.07;99872.37;2208528;80;30016;-71
2021/03/16 09:19:57;;;;;;;19.73;12.30;;;;;;;6.46;71.95;99870.97;2208357;80;27930;-70
2021/03/16 09:23:05;;;;;;;24.00;11.70;;;;;;;6.47;71.98;99874.04;2213087;79;29691;-74
2021/03/16 09:26:08;;;;;;;14.18;11.20;;;;;;;6.49;71.92;99874.84;2209040;80;32482;-71
2021/03/16 09:29:11;;;;;;;14.07;10.13;;;;;;;6.52;71.96;99878.72;2208912;80;33922;-72
2021/03/16 09:32:14;;;;;;;11.45;8.98;;;;;;;6.55;71.93;99878.58;2209111;80;30058;-74
2021/03/16 09:35:20;;;;;;;9.55;6.83;;;;;;;6.58;71.85;99876.27;2209024;80;27690;-68
2021/03/16 09:38:23;;;;;;;11.03;7.12;;;;;;;6.60;71.60;99878.41;2219756;80;29715;-78
2021/03/16 09:41:26;;;;;;;20.15;10.80;;;;;;;6.65;71.73;99877.75;2222410;80;32103;-68
2021/03/16 09:44:39;;;;;;;8.60;6.42;;;;;;;6.72;71.61;99884.56;2230305;79;34080;-73
2021/03/16 09:47:43;;;;;;;8.28;5.22;;;;;;;6.79;71.36;99891.84;2223989;80;33561;-72
2021/03/16 09:50:47;;;;;;;8.08;6.00;;;;;;;6.83;71.47;99897.45;2224053;80;28001;-73
2021/03/16 09:53:59;;;;;;;11.38;7.33;;;;;;;6.87;71.34;99904.36;2223993;79;29704;-73
2021/03/16 09:57:08;;;;;;;24.60;13.90;;;;;;;6.91;71.31;99899.80;2223867;80;32049;-74
2021/03/16 10:00:14;;;;;;;17.60;11.30;;;;;;;6.98;71.50;99898.15;2223880;79;33979;-74
2021/03/16 10:03:18;;;;;;;;;;;;;;;7.08;71.37;99903.97;2226550;80;31327;-72
2021/03/16 10:06:34;;;;;;;12.75;9.33;;;;;;;7.10;70.91;99910.09;2224102;80;27586;-73
2021/03/16 10:09:41;;;;;;;;;;;;;;;7.10;70.92;99916.76;2227115;79;29582;-74
2021/03/16 10:13:00;;;;;;;16.05;9.53;;;;;;;7.10;70.70;99915.88;2208016;80;31077;-74
2021/03/16 10:16:09;;;;;;;8.48;6.47;;;;;;;7.11;70.68;99921.61;2223807;80;33927;-74
2021/03/16 10:19:21;;;;;;;18.07;10.35;;;;;;;7.22;70.87;99924.67;2223969;80;30063;-74
2021/03/16 10:22:34;;;;;;;12.47;7.62;;;;;;;7.40;70.87;99917.72;2224057;80;28002;-70
2021/03/16 10:25:40;;;;;;;8.88;6.22;;;;;;;7.65;70.94;99921.12;2223723;79;28902;-74
2021/03/16 10:28:44;;;;;;;12.37;6.53;;;;;;;7.85;70.63;99922.45;2223939;79;31132;-75
2021/03/16 10:31:48;;;;;;;13.60;8.55;;;;;;;8.01;70.26;99921.28;2223993;80;33975;-68
2021/03/16 10:34:51;;;;;;;13.15;7.55;;;;;;;8.15;69.99;99931.34;2223970;80;30050;-74
2021/03/16 10:37:56;;;;;;;10.15;6.80;;;;;;;8.19;69.90;99934.23;2223946;79;27783;-67
2021/03/16 10:40:58;;;;;;;;;;;;;;;8.18;69.51;99939.66;2234876;79;30759;-74
2021/03/16 10:44:01;;;;;;;14.07;9.08;;;;;;;8.11;69.26;99944.41;2223926;80;31074;-72
2021/03/16 10:50:22;;;;;;;23.23;14.20;;;;;;;8.17;69.57;99944.59;2250285;77;30083;-68
2021/03/16 10:53:25;;;;;;;22.52;12.18;;;;;;;8.19;69.36;99947.58;2216068;80;27960;-68
2021/03/16 10:56:28;;;;;;;16.27;11.55;;;;;;;8.23;69.46;99947.00;2215591;80;29715;-78
2021/03/16 10:59:30;;;;;;;15.40;8.68;;;;;;;8.29;69.57;99949.84;2215742;80;32052;-78
2021/03/16 11:02:33;;;;;;;15.80;9.05;;;;;;;8.31;69.33;99942.64;2215839;80;33990;-78
2021/03/16 11:05:36;;;;;;;9.25;6.70;;;;;;;8.25;69.21;99948.25;2215899;80;29405;-77
2021/03/16 11:08:40;;;;;;;9.63;6.67;;;;;;;8.23;69.30;99951.45;2215955;80;27862;-78
2021/03/16 11:11:42;;;;;;;11.38;7.03;;;;;;;8.21;69.06;99952.87;2185242;80;29752;-75
2021/03/16 11:14:46;;;;;;;15.60;9.93;;;;;;;8.12;69.00;99961.27;2216122;80;32023;-77
2021/03/16 11:17:48;;;;;;;16.23;10.40;;;;;;;8.08;69.21;99961.03;2215786;80;33109;-72
2021/03/16 11:20:53;;;;;;;23.10;13.25;;;;;;;8.01;69.01;99966.62;2216443;80;29693;-66
2021/03/16 11:24:03;;;;;;;22.25;14.98;;;;;;;7.96;69.26;99966.44;2216311;80;27896;-61
2021/03/16 11:27:08;;;;;;;22.45;15.32;;;;;;;7.93;69.04;99967.91;2213406;80;29716;-60
2021/03/16 11:30:15;;;;;;;24.02;15.48;;;;;;;7.84;69.03;99971.84;2213484;80;32030;-60
2021/03/16 11:33:24;;;;;;;21.05;15.10;;;;;;;7.77;68.93;99969.06;2213373;80;33124;-61
2021/03/16 11:36:33;;;;;;;23.40;17.60;;;;;;;7.63;69.06;99969.64;2213519;80;29708;-64
2021/03/16 11:39:44;;;;;;;20.08;14.10;;;;;;;7.53;68.99;99971.34;2213474;80;27900;-61
2021/03/16 11:42:51;;;;;;;15.80;10.58;;;;;;;7.44;69.18;99980.63;2213520;80;29717;-65
2021/03/16 11:46:00;;;;;;;18.55;12.18;;;;;;;7.29;69.11;99981.23;2182960;80;32020;-60
2021/03/16 11:49:05;;;;;;;29.52;16.85;;;;;;;7.15;69.45;99985.82;2216703;80;33919;-61
2021/03/16 11:52:18;;;;;;;27.07;15.68;;;;;;;7.03;69.57;99991.17;2220720;80;30274;-61
2021/03/16 11:55:23;;;;;;;20.90;14.35;;;;;;;6.93;69.69;99989.34;2220864;80;27836;-61
2021/03/16 11:58:33;;;;;;;;;;;;;;;6.83;69.97;99988.83;2223308;80;30894;-61
2021/03/16 12:01:43;;;;;;;21.73;14.50;;;;;;;6.77;70.15;99990.42;2219858;80;31145;-61
2021/03/16 12:04:56;;;;;;;22.22;15.78;;;;;;;6.65;70.15;99990.87;2219339;80;33984;-69
2021/03/16 12:08:02;;;;;;;26.90;17.20;;;;;;;6.59;70.40;99993.31;2219797;80;28854;-66
2021/03/16 12:11:06;;;;;;;31.27;18.90;;;;;;;6.57;70.67;99992.50;2219145;80;27985;-60
2021/03/16 12:14:11;;;;;;;23.83;15.40;;;;;;;6.56;70.82;99992.09;2218476;80;29709;-75
2021/03/16 12:17:15;;;;;;;27.82;17.75;;;;;;;6.58;71.06;99998.70;2221449;80;32016;-74
2021/03/16 12:20:26;;;;;;;28.67;18.15;;;;;;;6.65;71.21;99994.86;2219171;80;34032;-73
2021/03/16 12:23:34;;;;;;;25.60;17.52;;;;;;;6.71;71.21;99999.96;2220049;80;29727;-77
2021/03/16 12:26:44;;;;;;;27.67;17.32;;;;;;;6.66;70.89;100004.59;2219911;80;27968;-75
2021/03/16 12:29:48;;;;;;;26.37;17.25;;;;;;;6.61;70.85;100008.76;2190752;80;30990;-69
2021/03/16 12:32:53;;;;;;;26.62;16.60;;;;;;;6.53;70.69;100005.06;2219829;80;31994;-75
2021/03/16 12:36:05;;;;;;;26.80;16.42;;;;;;;6.51;70.90;100007.39;2220055;80;33972;-76
2021/03/16 12:39:15;;;;;;;21.80;15.38;;;;;;;6.52;71.18;100003.80;2220085;80;29813;-74
2021/03/16 12:42:27;;;;;;;20.75;13.22;;;;;;;6.50;71.14;100008.31;2220267;80;27867;-74
2021/03/16 12:45:42;;;;;;;18.73;12.45;;;;;;;6.44;71.18;100013.41;2219145;80;27876;-71
2021/03/16 12:48:47;;;;;;;15.68;10.43;;;;;;;6.42;71.35;100009.92;2218024;80;32037;-68
2021/03/16 12:51:56;;;;;;;13.18;9.43;;;;;;;6.42;71.38;100016.58;2212702;80;33957;-69
2021/03/16 12:55:04;;;;;;;17.87;11.45;;;;;;;6.45;71.54;100016.91;2212760;80;29753;-64
2021/03/16 12:58:15;;;;;;;23.30;14.07;;;;;;;6.49;71.57;100016.73;2212648;80;27846;-72
2021/03/16 13:01:31;;;;;;;25.57;14.43;;;;;;;6.59;71.71;100024.39;2212582;80;29790;-70
2021/03/16 13:04:42;;;;;;;19.60;12.45;;;;;;;6.65;71.75;100024.14;2212484;80;32042;-70
2021/03/16 13:07:54;;;;;;;23.95;13.40;;;;;;;6.61;71.56;100016.75;2212931;80;33992;-74
2021/03/16 13:11:02;;;;;;;14.43;8.25;;;;;;;6.72;71.65;100028.32;2212394;80;29754;-67
2021/03/16 13:14:07;;;;;;;16.75;9.93;;;;;;;6.68;71.42;100020.92;2212416;80;27910;-70
2021/03/16 13:17:12;;;;;;;13.43;7.40;;;;;;;6.69;71.34;100032.42;2212329;80;29693;-66
2021/03/16 13:20:17;;;;;;;10.08;7.00;;;;;;;6.68;71.26;100038.67;2212622;80;32034;-76
2021/03/16 13:23:23;;;;;;;11.47;6.97;;;;;;;6.66;71.09;100038.74;2212206;80;34034;-70
2021/03/16 13:26:31;;;;;;;12.18;7.10;;;;;;;6.61;71.04;100042.51;2212066;80;29791;-70
2021/03/16 13:29:39;;;;;;;7.75;5.53;;;;;;;6.55;70.91;100046.24;2169164;81;27921;-75
2021/03/16 13:32:43;;;;;;;11.40;7.17;;;;;;;6.46;71.03;100043.45;2169451;81;29698;-71
2021/03/16 13:35:52;;;;;;;11.88;7.62;;;;;;;6.37;70.90;100052.64;2134186;83;32031;-65
2021/03/16 13:38:58;;;;;;;8.95;6.60;;;;;;;6.39;71.29;100053.94;2133005;83;33967;-73
2021/03/16 13:42:05;;;;;;;8.13;6.08;;;;;;;6.49;71.29;100055.80;2132045;83;29676;-68
2021/03/16 13:45:16;;;;;;;8.78;6.30;;;;;;;6.55;71.43;100064.88;2131760;82;28241;-64
2021/03/16 13:48:25;;;;;;;16.00;8.40;;;;;;;6.61;71.38;100062.47;2130816;82;28824;-63
2021/03/16 13:51:35;;;;;;;29.82;15.15;;;;;;;6.62;71.24;100071.72;2126539;82;32047;-65
2021/03/16 13:54:41;;;;;;;44.30;17.35;;;;;;;6.60;71.02;100078.89;2109538;83;33986;-64
2021/03/16 13:57:47;;;;;;;29.82;13.03;;;;;;;6.49;70.92;100080.61;2124881;83;29745;-69
2021/03/16 14:00:53;;;;;;;14.15;9.85;;;;;;;6.41;70.87;100085.80;2124809;83;27933;-63
2021/03/16 14:04:06;;;;;;;13.70;9.50;;;;;;;6.31;70.96;100090.57;2124154;83;29804;-65
2021/03/16 14:07:12;;;;;;;16.85;10.28;;;;;;;6.28;71.12;100090.71;2124869;83;32084;-63
2021/03/16 14:10:19;;;;;;;19.62;13.93;;;;;;;6.22;71.11;100097.09;2110478;83;33829;-63
2021/03/16 14:13:24;;;;;;;;;;;;;;;6.12;71.18;100101.00;2129316;83;29784;-62
2021/03/16 14:16:31;;;;;;;11.55;6.67;;;;;;;6.11;71.43;100099.27;2126629;82;27892;-62
2021/03/16 14:19:37;;;;;;;8.83;6.28;;;;;;;6.06;71.32;100104.74;2126190;83;29692;-66
2021/03/16 14:22:49;;;;;;;12.10;7.67;;;;;;;6.06;71.58;100106.92;2127386;83;32031;-63
2021/03/16 14:26:00;;;;;;;13.93;8.90;;;;;;;6.10;71.67;100110.81;2126123;83;33070;-63
2021/03/16 14:29:06;;;;;;;11.83;7.30;;;;;;;6.14;71.82;100107.99;2111273;83;29825;-67
2021/03/16 14:32:12;;;;;;;12.13;7.50;;;;;;;6.18;71.71;100113.62;2111544;83;28041;-62
2021/03/16 14:35:17;;;;;;;8.73;5.55;;;;;;;6.16;71.60;100114.13;2126430;83;28867;-64
2021/03/16 14:38:22;;;;;;;15.93;8.13;;;;;;;6.10;71.67;100118.80;2126715;83;31126;-64
2021/03/16 14:41:28;;;;;;;10.38;6.47;;;;;;;6.03;71.66;100120.35;2126506;83;33975;-65
2021/03/16 14:44:38;;;;;;;13.55;7.53;;;;;;;6.04;71.79;100126.52;2126668;83;29752;-65
2021/03/16 14:47:48;;;;;;;;;;;;;;;6.01;71.81;100127.51;2129228;83;27939;-63
2021/03/16 14:50:53;;;;;;;10.45;5.60;;;;;;;6.00;71.82;100127.55;2129252;81;28870;-64
2021/03/16 14:53:56;;;;;;;8.08;5.37;;;;;;;5.99;71.86;100129.31;2145274;82;32041;-71
2021/03/16 14:57:08;;;;;;;13.85;7.53;;;;;;;5.99;71.75;100129.31;2138949;82;33912;-64